Mineola, Iowa
Current Conditions -  °F | °C
As of 2:15 PM on Thursday 29 Jan 2015 (Local Time) from KCBF Reporting Station
Overcast Overcast  
Wind Chill: 24°   Ceiling: 2600
Heat Index: 36°   Visibility: 10mi
Dew Point: 27°   Wind: 22mph
Humidity: 70%   Direction: 330°NNW
Pressure: 30.39"   Gusts: 30mph
Location:  41.14°N, 95.7°W
Report Text: KCBF 292015Z AUTO 33019G26KT 10SM OVC026 02/M03 A3039 RMK AO2
Loading
Personal Weather Stations






























Interactive Weather Map New forecast layout! Learn more

10-Day Weather Forecast

Advertisements
Track Severe Weather on mobile